Terminal Aerodrome Forecast
Issued by NWS Sioux Falls, SD

Home | Current Version | Previous Version | Graphics & Text | Print | Product List | Glossary On
Versions: 1 2 3 4 5 6 7 8 9 10 11 12 13 14 15 16 17 18 19 20 21 22 23
000
FTUS43 KFSD 301738
TAFSUX
TAF
KSUX 301738Z 3018/3118 02013G20KT P6SM FEW030
     FM302300 03010KT P6SM SKC
     FM310200 07005KT P6SM FEW200
     FM311400 13009KT P6SM FEW020 BKN150=

USA.gov is the U.S. government's official web portal to all federal, state and local government web resources and services.